Aérodrome :
LOGIN :

S'inscrire | Disclaimer

   EN    FR    IT 

 










Légende :    VFR   VFR Marginal   IFR   IFR Intensif   IFR Très Intensif
Visi : 
Plafond : 
>= 8 km
>= 3000ft
5 à 8 km
1000 à 3000 ft
1500m à 5 km
500 à 1000 ft
800 à 1500m
200 à 500 ft
< 800m
< 200 ft
Symboles :   Orages  Brouillard  Fortes neiges  Fortes précipitations  Vent > 20 kt
SIGMETs :   Divers  Orages  Givrage  Turbulence  Onde Orograph.  Cendres Volcan.






- Altitude de l'aérodrome : 640 ft
- Code IATA : AOC


EDAC - Altenburg-Nobitz

DERNIER METAR :
  • 162320Z AUTO 14003KT 9000 // FEW200/// 00/M01 Q1015

METARs EXPIRÉS :
  • 162250Z AUTO 16002KT 9999 // FEW240/// 01/M00 Q1015
  • 162220Z AUTO 14004KT 9999 // BKN200/// BKN240/// 02/01 Q1015
  • 162150Z AUTO 11002KT 9999 // BKN210/// 01/01 Q1015
  • 162120Z AUTO 15003KT 9999 // BKN220/// 02/00 Q1014
  • 162050Z AUTO 12003KT 9999 // BKN230/// 02/01 Q1014

Prévision TAF périmée.



MET'MAP, la Météo Aéronautique d'un coup d'oeil ! - Copyright ORBIFLY Décembre 2007 - Disclaimer

ORBIFLY MET'MAP TEAM :

Programmation & Développement : Alexandra Zaïnal
Conception & Développement : Baudouin d'Aumeries
Co-Programmation & Développement : Marc-Olivier Méhu
Soutien technique & logistique : Manuel Goepfert

Contact : metmap@orbifly.com




SOURCES & CREDITS :

   NOAA